Time;durP1;ratioP1;P1;durP2;ratioP2;P2;SDS_P1;SDS_P2;PMS_P1;PMS_P2;Temp;Humidity;BMP_temperature;BMP_pressure;BME280_temperature;BME280_humidity;BME280_pressure;Samples;Min_cycle;Max_cycle;Signal;HPM_P1;HPM_P2
2022/01/02 00:01:26;;;;;;;3.22;2.00;;;0.40;99.90;;;;;;5069383;28;20115;-77
2022/01/02 00:03:53;;;;;;;5.35;2.78;;;0.40;99.90;;;;;;5069609;28;20135;-79
2022/01/02 00:06:24;;;;;;;2.83;2.10;;;0.30;99.90;;;;;;5086596;28;20520;-74
2022/01/02 00:08:58;;;;;;;5.95;2.88;;;0.40;99.90;;;;;;5069527;28;20101;-74
2022/01/02 00:11:24;;;;;;;7.85;2.42;;;0.70;99.90;;;;;;5088229;28;20378;-77
2022/01/02 00:13:58;;;;;;;4.40;1.95;;;0.80;99.90;;;;;;5069604;28;20081;-75
2022/01/02 00:16:24;;;;;;;4.68;2.45;;;0.80;99.90;;;;;;5068876;28;20107;-82
2022/01/02 00:19:03;;;;;;;8.23;3.03;;;0.90;99.90;;;;;;5069549;28;20040;-74
2022/01/02 00:21:32;;;;;;;4.60;2.05;;;0.90;99.90;;;;;;5068719;28;20081;-77
2022/01/02 00:24:05;;;;;;;3.47;2.65;;;0.70;99.90;;;;;;5068965;28;20032;-76
2022/01/02 00:26:40;;;;;;;9.02;2.33;;;0.50;99.90;;;;;;5085923;28;20016;-75
2022/01/02 00:29:07;;;;;;;2.45;1.85;;;0.40;99.90;;;;;;5068725;28;20059;-75
2022/01/02 00:31:34;;;;;;;4.28;2.22;;;0.50;99.90;;;;;;5068538;28;20050;-75
2022/01/02 00:34:01;;;;;;;3.63;2.10;;;0.40;99.90;;;;;;5067944;28;20077;-84
2022/01/02 00:36:26;;;;;;;3.75;1.52;;;0.30;99.90;;;;;;5068190;28;20032;-77
2022/01/02 00:38:52;;;;;;;1.60;1.50;;;0.30;99.90;;;;;;5087568;28;20048;-80
2022/01/02 00:41:41;;;;;;;1.25;1.15;;;0.20;99.90;;;;;;5088641;28;20034;-75
2022/01/02 00:44:21;;;;;;;2.53;1.48;;;0.10;99.90;;;;;;5105858;28;20035;-75
2022/01/02 00:47:31;;;;;;;5.93;2.35;;;0.20;99.90;;;;;;5087272;28;20511;-78
2022/01/02 00:50:06;;;;;;;2.47;2.28;;;0.20;99.90;;;;;;5106108;28;20074;-75
2022/01/02 00:52:37;;;;;;;1.60;1.50;;;0.20;99.90;;;;;;5106097;28;20027;-75
2022/01/02 00:55:09;;;;;;;1.85;1.42;;;0.10;99.90;;;;;;5087479;28;20356;-77
2022/01/02 00:57:37;;;;;;;3.25;1.70;;;0.00;99.90;;;;;;5087293;28;20016;-74
2022/01/02 01:00:06;;;;;;;3.42;1.73;;;-0.10;99.90;;;;;;5106899;28;20533;-75
2022/01/02 01:02:39;;;;;;;2.97;1.65;;;-0.30;99.90;;;;;;5088976;28;20057;-77
2022/01/02 01:05:07;;;;;;;1.90;1.70;;;-0.40;99.90;;;;;;5088883;28;20506;-76
2022/01/02 01:07:34;;;;;;;2.53;1.70;;;-0.10;99.90;;;;;;5110755;28;20036;-75
2022/01/02 01:10:02;;;;;;;2.03;1.40;;;-0.10;99.90;;;;;;5093496;28;20027;-76
2022/01/02 01:12:29;;;;;;;5.68;1.92;;;0.00;99.90;;;;;;5092567;28;20374;-75
2022/01/02 01:14:56;;;;;;;2.03;1.83;;;0.10;99.90;;;;;;5111408;28;20093;-75
2022/01/02 01:17:22;;;;;;;1.48;1.38;;;0.10;99.90;;;;;;5110368;28;20059;-74
2022/01/02 01:19:51;;;;;;;2.47;1.80;;;0.10;99.90;;;;;;5093497;28;20047;-83
2022/01/02 01:22:16;;;;;;;4.05;1.85;;;0.00;99.90;;;;;;5092693;28;20023;-76
2022/01/02 01:24:42;;;;;;;3.70;2.13;;;0.10;99.90;;;;;;5092635;28;20403;-75
2022/01/02 01:27:09;;;;;;;1.52;1.42;;;0.10;99.90;;;;;;5092044;28;20055;-79
2022/01/02 01:29:36;;;;;;;2.53;1.77;;;0.10;99.90;;;;;;5092591;28;20083;-77
2022/01/02 01:32:06;;;;;;;4.75;1.73;;;0.00;99.90;;;;;;5092641;28;20264;-75
2022/01/02 01:34:33;;;;;;;1.38;1.27;;;0.00;99.90;;;;;;5111210;28;20103;-75
2022/01/02 01:36:59;;;;;;;2.53;1.42;;;0.10;99.90;;;;;;5109938;28;20042;-81
2022/01/02 01:39:25;;;;;;;2.03;1.23;;;-0.10;99.90;;;;;;5083716;28;20042;-77
2022/01/02 01:41:53;;;;;;;7.85;2.78;;;-0.10;99.90;;;;;;5072827;28;20021;-75
2022/01/02 01:44:27;;;;;;;3.17;1.98;;;-0.10;99.90;;;;;;5070649;28;20136;-75
2022/01/02 01:46:55;;;;;;;3.70;2.40;;;-0.30;99.90;;;;;;5070159;28;20024;-75
2022/01/02 01:49:27;;;;;;;1.95;1.63;;;0.00;99.90;;;;;;5070218;28;20028;-78
2022/01/02 01:51:53;;;;;;;1.77;1.52;;;-0.10;99.90;;;;;;5069462;28;20067;-75
2022/01/02 01:54:20;;;;;;;2.47;2.15;;;-0.30;99.90;;;;;;5069615;28;20169;-77
2022/01/02 01:56:46;;;;;;;5.95;2.67;;;-0.40;99.90;;;;;;5067792;28;20028;-75
2022/01/02 01:59:15;;;;;;;3.17;1.80;;;-0.40;99.90;;;;;;5070001;28;20074;-75
2022/01/02 02:01:40;;;;;;;3.53;1.70;;;-0.30;99.90;;;;;;5068842;28;20439;-78
2022/01/02 02:04:06;;;;;;;3.47;1.98;;;-0.60;99.90;;;;;;5068287;28;20040;-78
2022/01/02 02:06:34;;;;;;;3.75;2.03;;;-0.40;99.90;;;;;;5067794;28;20025;-84
2022/01/02 02:09:01;;;;;;;4.85;2.60;;;-0.50;99.90;;;;;;5068855;28;20397;-80
2022/01/02 02:11:28;;;;;;;3.30;1.80;;;-0.50;99.90;;;;;;5068363;28;20023;-75
2022/01/02 02:13:55;;;;;;;2.10;1.73;;;-0.50;99.90;;;;;;5069431;28;20098;-77
2022/01/02 02:16:21;;;;;;;3.88;2.42;;;-0.20;99.90;;;;;;5069735;28;20113;-77
2022/01/02 02:18:47;;;;;;;6.57;3.03;;;0.00;99.90;;;;;;5069208;28;20098;-79
2022/01/02 02:21:13;;;;;;;1.95;1.80;;;0.20;99.90;;;;;;5068288;28;20025;-76
2022/01/02 02:23:38;;;;;;;2.47;1.85;;;0.20;99.90;;;;;;5068091;28;20043;-75
2022/01/02 02:26:04;;;;;;;1.50;1.40;;;0.10;99.90;;;;;;5069316;28;20076;-76
2022/01/02 02:28:30;;;;;;;1.70;1.60;;;0.00;99.90;;;;;;5068071;28;20023;-75
2022/01/02 02:30:56;;;;;;;1.73;0.95;;;0.10;99.90;;;;;;5069432;28;20024;-75
2022/01/02 02:33:24;;;;;;;2.00;1.60;;;0.20;99.90;;;;;;5068205;28;20330;-75
2022/01/02 02:35:50;;;;;;;1.92;1.48;;;0.10;99.90;;;;;;5067579;28;20033;-75
2022/01/02 02:38:18;;;;;;;5.07;1.65;;;0.10;99.90;;;;;;5069593;28;20166;-76
2022/01/02 02:40:45;;;;;;;2.20;1.38;;;0.40;99.90;;;;;;5087418;28;20032;-75
2022/01/02 02:52:11;;;;;;;4.57;2.17;;;0.20;99.90;;;;;;5110999;28;20246;-76
2022/01/02 02:54:31;;;;;;;2.65;1.92;;;-0.10;99.90;;;;;;5107824;28;20039;-76
2022/01/02 02:56:59;;;;;;;1.73;1.50;;;-0.20;99.90;;;;;;5113435;28;20030;-77
2022/01/02 02:59:30;;;;;;;3.38;1.65;;;0.00;99.90;;;;;;5095231;28;20321;-76
2022/01/02 03:01:56;;;;;;;4.97;1.88;;;0.20;99.90;;;;;;5094512;28;20107;-78
2022/01/02 03:04:23;;;;;;;2.25;1.95;;;0.40;99.90;;;;;;5093798;28;20035;-76
2022/01/02 03:06:49;;;;;;;2.42;1.80;;;0.10;99.90;;;;;;5093831;28;20020;-85
2022/01/02 03:09:18;;;;;;;3.28;2.22;;;-0.10;99.90;;;;;;5093226;28;20043;-77
2022/01/02 03:11:44;;;;;;;;;;;-0.10;99.90;;;;;;5094341;28;20027;-80
2022/01/02 03:14:12;;;;;;;4.95;1.63;;;-0.10;99.90;;;;;;5112328;28;19908;-76
2022/01/02 03:16:38;;;;;;;3.40;1.58;;;-0.10;99.90;;;;;;5112806;28;20020;-76
2022/01/02 03:19:05;;;;;;;3.15;2.00;;;-0.30;99.90;;;;;;5095873;28;20096;-80
2022/01/02 03:21:31;;;;;;;2.42;1.63;;;-0.50;99.90;;;;;;5093701;28;20019;-75
2022/01/02 03:23:56;;;;;;;3.05;1.90;;;-0.60;99.90;;;;;;5093415;28;20507;-81
2022/01/02 03:26:22;;;;;;;2.88;1.58;;;-0.50;99.90;;;;;;5093398;28;20077;-75
2022/01/02 03:28:48;;;;;;;3.28;2.60;;;-0.60;99.90;;;;;;5092669;28;20023;-75
2022/01/02 03:31:15;;;;;;;2.50;1.63;;;-0.30;99.90;;;;;;5100060;28;20024;-76
2022/01/02 03:33:41;;;;;;;2.75;1.67;;;-0.70;99.90;;;;;;5080522;28;20381;-78
2022/01/02 03:36:06;;;;;;;5.22;2.80;;;-0.60;99.90;;;;;;5111964;28;20023;-75
2022/01/02 03:38:33;;;;;;;1.80;1.25;;;-0.30;99.90;;;;;;5095156;28;20093;-75
2022/01/02 03:40:59;;;;;;;4.43;2.58;;;0.10;99.90;;;;;;5117728;28;20055;-75
2022/01/02 03:43:25;;;;;;;4.68;2.42;;;0.10;99.90;;;;;;5094775;28;20069;-76
2022/01/02 03:45:51;;;;;;;2.40;2.00;;;0.00;99.90;;;;;;5093042;28;20026;-76
2022/01/02 03:48:16;;;;;;;2.15;1.50;;;-0.20;99.90;;;;;;5092725;28;20498;-79
2022/01/02 03:50:42;;;;;;;2.60;1.48;;;-0.40;99.90;;;;;;5072450;28;20400;-78
2022/01/02 03:53:08;;;;;;;1.95;1.80;;;-0.50;99.90;;;;;;5072572;28;20312;-76
2022/01/02 03:55:35;;;;;;;1.30;1.20;;;-0.70;99.90;;;;;;5072190;28;20480;-81
2022/01/02 03:58:01;;;;;;;5.32;1.95;;;-0.60;99.90;;;;;;5072717;28;20020;-76
2022/01/02 04:00:27;;;;;;;2.47;1.80;;;-0.70;99.90;;;;;;5090707;28;20057;-76
2022/01/02 04:02:53;;;;;;;2.58;2.17;;;-0.80;99.90;;;;;;5090383;28;20028;-77
2022/01/02 04:05:19;;;;;;;2.88;1.80;;;-0.90;99.90;;;;;;5072359;28;20028;-77
2022/01/02 04:07:45;;;;;;;4.07;1.92;;;-0.90;99.90;;;;;;5072441;28;20472;-75
2022/01/02 04:10:13;;;;;;;3.35;1.63;;;-0.70;99.90;;;;;;5072322;28;20027;-76
2022/01/02 04:12:39;;;;;;;4.15;1.90;;;-0.70;99.90;;;;;;5090623;28;20035;-83
2022/01/02 04:15:08;;;;;;;3.53;2.35;;;-0.70;99.90;;;;;;5072505;28;20050;-76
2022/01/02 04:17:35;;;;;;;2.08;1.63;;;-0.80;99.90;;;;;;5090516;28;20105;-76
2022/01/02 04:20:01;;;;;;;3.55;1.80;;;-0.90;99.90;;;;;;5090455;28;20035;-78
2022/01/02 04:22:27;;;;;;;3.38;1.73;;;-0.60;99.90;;;;;;5072456;28;20027;-76
2022/01/02 04:24:52;;;;;;;5.25;2.22;;;-0.80;99.90;;;;;;5090014;28;20458;-76
2022/01/02 04:27:20;;;;;;;3.80;1.50;;;-0.90;99.90;;;;;;5072186;28;20051;-75
2022/01/02 04:29:46;;;;;;;3.50;1.80;;;-0.60;99.90;;;;;;5090337;28;20027;-76
2022/01/02 04:32:13;;;;;;;4.65;2.42;;;-0.80;99.90;;;;;;5092447;28;20024;-76
2022/01/02 04:34:38;;;;;;;3.03;1.60;;;-0.20;99.90;;;;;;5094017;28;20491;-76
2022/01/02 04:37:05;;;;;;;3.83;1.83;;;-0.60;99.90;;;;;;5072415;28;20040;-82
2022/01/02 04:39:32;;;;;;;1.30;1.20;;;-0.50;99.90;;;;;;5071742;28;20079;-80
2022/01/02 04:41:58;;;;;;;3.67;1.73;;;-0.30;99.90;;;;;;5072341;28;20487;-75
2022/01/02 04:44:23;;;;;;;3.55;2.20;;;-0.30;99.90;;;;;;5090164;28;20043;-77
2022/01/02 04:46:49;;;;;;;2.70;1.83;;;-0.10;99.90;;;;;;5072163;28;20081;-78
2022/01/02 04:49:15;;;;;;;1.80;1.25;;;0.10;99.90;;;;;;5090155;28;20024;-77
2022/01/02 04:51:40;;;;;;;2.60;1.98;;;0.20;99.90;;;;;;5092865;28;20028;-76
2022/01/02 04:54:06;;;;;;;3.67;2.65;;;-0.10;99.90;;;;;;5072774;28;20023;-77
2022/01/02 04:56:32;;;;;;;2.25;1.70;;;-0.30;99.90;;;;;;5089942;28;20024;-76
2022/01/02 04:58:57;;;;;;;2.28;1.23;;;-0.50;99.90;;;;;;5089897;28;20035;-76
2022/01/02 05:01:23;;;;;;;4.32;2.35;;;-0.40;99.90;;;;;;5071645;28;20411;-77
2022/01/02 05:03:49;;;;;;;1.85;1.60;;;-0.50;99.90;;;;;;5071667;28;20534;-76
2022/01/02 05:06:14;;;;;;;2.45;2.10;;;-0.60;99.90;;;;;;5071846;28;20032;-78
2022/01/02 05:08:44;;;;;;;4.90;2.20;;;-0.20;99.90;;;;;;5071361;28;20024;-79
2022/01/02 05:11:10;;;;;;;8.05;2.17;;;-0.50;99.90;;;;;;5072048;28;20023;-78
2022/01/02 05:13:36;;;;;;;2.90;1.60;;;-0.30;99.90;;;;;;5089497;28;20028;-86
2022/01/02 05:16:02;;;;;;;4.20;1.75;;;-0.40;99.90;;;;;;5089384;28;20609;-82
2022/01/02 05:18:27;;;;;;;4.00;2.45;;;-0.40;99.90;;;;;;5090004;28;20031;-78
2022/01/02 05:20:53;;;;;;;2.67;2.00;;;-0.50;99.90;;;;;;5071911;28;20112;-81
2022/01/02 05:23:21;;;;;;;3.25;2.28;;;-0.30;99.90;;;;;;5072035;28;20485;-82
2022/01/02 05:25:47;;;;;;;2.05;1.85;;;-0.50;99.90;;;;;;5090341;28;20100;-83
2022/01/02 05:28:13;;;;;;;4.72;2.25;;;-0.30;99.90;;;;;;5089831;28;20114;-77
2022/01/02 05:30:39;;;;;;;2.53;1.88;;;-0.40;99.90;;;;;;5089618;28;20404;-76
2022/01/02 05:33:06;;;;;;;4.07;2.65;;;-0.50;99.90;;;;;;5089653;28;20415;-76
2022/01/02 05:35:32;;;;;;;2.28;1.90;;;-0.40;99.90;;;;;;5089791;28;20020;-76
2022/01/02 05:37:59;;;;;;;3.72;2.80;;;-0.10;99.90;;;;;;5089301;28;20051;-76
2022/01/02 05:40:30;;;;;;;2.85;1.95;;;-0.50;99.90;;;;;;5089538;28;20032;-76
2022/01/02 05:43:06;;;;;;;2.90;2.15;;;-0.50;99.90;;;;;;5071191;28;20055;-80
2022/01/02 05:45:32;;;;;;;3.10;1.98;;;-0.40;99.90;;;;;;5066744;28;20396;-76
2022/01/02 05:47:58;;;;;;;2.97;2.40;;;-0.40;99.90;;;;;;5071481;28;20262;-76
2022/01/02 05:50:24;;;;;;;4.70;2.97;;;-0.30;99.90;;;;;;5071285;28;20032;-76
2022/01/02 05:52:50;;;;;;;5.03;2.40;;;-0.20;99.90;;;;;;5072014;28;20038;-76
2022/01/02 05:55:16;;;;;;;3.40;1.92;;;-0.20;99.90;;;;;;5093078;28;20109;-77
2022/01/02 05:57:42;;;;;;;3.72;1.95;;;-0.30;99.90;;;;;;5074848;28;20369;-76
2022/01/02 06:00:09;;;;;;;2.95;1.73;;;-0.40;99.90;;;;;;5074859;28;20042;-76
2022/01/02 06:02:36;;;;;;;1.80;1.70;;;-0.40;99.90;;;;;;5075045;28;20046;-75
2022/01/02 06:05:02;;;;;;;4.78;2.53;;;-0.50;99.90;;;;;;5074937;28;20028;-75
2022/01/02 06:07:31;;;;;;;4.35;1.73;;;-0.50;99.90;;;;;;5092674;28;20055;-76
2022/01/02 06:09:56;;;;;;;2.60;2.00;;;-0.50;99.90;;;;;;5092309;28;20480;-77
2022/01/02 06:12:23;;;;;;;2.60;2.00;;;-0.50;99.90;;;;;;5092324;28;20080;-76
2022/01/02 06:14:49;;;;;;;7.22;2.35;;;-0.50;99.90;;;;;;5092574;28;20480;-77
2022/01/02 06:17:15;;;;;;;6.88;2.72;;;-0.50;99.90;;;;;;5074378;28;20025;-76
2022/01/02 06:19:40;;;;;;;6.68;1.98;;;-0.50;99.90;;;;;;5092396;28;20043;-76
2022/01/02 06:22:06;;;;;;;3.60;2.13;;;-0.40;99.90;;;;;;5074321;28;20032;-76
2022/01/02 06:24:32;;;;;;;4.97;4.22;;;-0.40;99.90;;;;;;5092126;28;20043;-78
2022/01/02 06:26:57;;;;;;;3.42;2.05;;;-0.30;99.90;;;;;;5092455;28;20115;-76
2022/01/02 06:29:23;;;;;;;3.33;2.83;;;0.00;99.90;;;;;;5074521;28;20392;-77
2022/01/02 06:31:49;;;;;;;3.00;1.80;;;-0.30;99.90;;;;;;5074182;28;20016;-76
2022/01/02 06:34:14;;;;;;;3.30;2.15;;;0.00;99.90;;;;;;5092221;28;20032;-76
2022/01/02 06:36:40;;;;;;;4.28;2.70;;;-0.20;99.90;;;;;;5074543;28;20388;-76
2022/01/02 06:39:06;;;;;;;5.45;3.03;;;-0.10;99.90;;;;;;5092436;28;20510;-77
2022/01/02 06:41:31;;;;;;;5.50;2.50;;;0.10;99.90;;;;;;5074356;28;20526;-76
2022/01/02 06:43:57;;;;;;;4.63;2.90;;;0.10;99.90;;;;;;5074101;28;20044;-76
2022/01/02 06:46:23;;;;;;;5.78;2.70;;;0.20;99.90;;;;;;5073855;28;20028;-75
2022/01/02 06:48:48;;;;;;;6.97;2.80;;;0.20;99.90;;;;;;5092016;28;20032;-76
2022/01/02 06:51:14;;;;;;;4.65;2.97;;;0.10;99.90;;;;;;5074303;28;20023;-76
2022/01/02 06:53:40;;;;;;;7.95;3.10;;;0.20;99.90;;;;;;5091836;28;20016;-76
2022/01/02 06:56:05;;;;;;;6.68;3.58;;;0.10;99.90;;;;;;5073826;28;20028;-76
2022/01/02 06:58:31;;;;;;;3.22;2.40;;;0.00;99.90;;;;;;5091864;28;20020;-76
2022/01/02 07:00:57;;;;;;;6.32;2.40;;;0.10;99.90;;;;;;5092042;28;20024;-76
2022/01/02 07:03:24;;;;;;;5.72;2.22;;;0.30;99.90;;;;;;5092268;28;20111;-75
2022/01/02 07:05:50;;;;;;;2.22;1.73;;;0.30;99.90;;;;;;5091656;28;20081;-76
2022/01/02 07:08:16;;;;;;;4.72;2.20;;;0.20;99.90;;;;;;5091380;28;20020;-75
2022/01/02 07:10:42;;;;;;;2.72;2.22;;;0.20;99.90;;;;;;5073499;28;20035;-75
2022/01/02 07:13:08;;;;;;;3.22;2.28;;;0.30;99.90;;;;;;5091337;28;20123;-75
2022/01/02 07:15:34;;;;;;;3.60;2.17;;;0.30;99.90;;;;;;5073557;28;20027;-75
2022/01/02 07:18:00;;;;;;;3.85;2.58;;;0.30;99.90;;;;;;5073374;28;20526;-75
2022/01/02 07:20:26;;;;;;;5.25;2.30;;;0.40;99.90;;;;;;5073279;28;20031;-75
2022/01/02 07:22:51;;;;;;;5.38;2.50;;;0.30;99.90;;;;;;5072846;28;20028;-76
2022/01/02 07:25:17;;;;;;;3.35;2.22;;;0.30;99.90;;;;;;5072819;28;20114;-76
2022/01/02 07:27:43;;;;;;;2.97;2.67;;;0.30;99.90;;;;;;5091162;28;20024;-81
2022/01/02 07:30:09;;;;;;;5.18;3.08;;;0.20;99.90;;;;;;5072870;28;20170;-76
2022/01/02 07:32:37;;;;;;;7.72;4.00;;;0.20;99.90;;;;;;5072559;28;20030;-77
2022/01/02 07:35:06;;;;;;;4.53;2.17;;;0.20;99.90;;;;;;5072795;28;20477;-84
2022/01/02 07:37:34;;;;;;;5.05;2.90;;;0.20;99.90;;;;;;5072723;28;20043;-76
2022/01/02 07:40:01;;;;;;;5.63;2.63;;;0.30;99.90;;;;;;5090709;28;20048;-76
2022/01/02 07:42:26;;;;;;;4.00;2.08;;;0.20;99.90;;;;;;5090820;28;20348;-75
2022/01/02 07:44:52;;;;;;;12.00;5.53;;;0.20;99.90;;;;;;5072198;28;20127;-76
2022/01/02 07:47:18;;;;;;;6.30;3.25;;;0.10;99.90;;;;;;5072161;28;20484;-76
2022/01/02 07:49:44;;;;;;;7.95;3.55;;;0.30;99.90;;;;;;5072318;28;20028;-76
2022/01/02 07:52:09;;;;;;;3.92;2.80;;;0.30;99.90;;;;;;5072410;28;20055;-76
2022/01/02 07:54:35;;;;;;;6.38;3.15;;;0.30;99.90;;;;;;5088311;28;20051;-76
2022/01/02 07:57:00;;;;;;;4.75;2.53;;;0.20;99.90;;;;;;5072271;28;20032;-76
2022/01/02 07:59:26;;;;;;;2.75;2.17;;;0.20;99.90;;;;;;5072518;28;20043;-81
2022/01/02 08:01:52;;;;;;;4.40;2.17;;;0.30;99.90;;;;;;5072084;28;20059;-79
2022/01/02 08:04:19;;;;;;;3.40;1.67;;;0.50;99.90;;;;;;5071403;28;20028;-79
2022/01/02 08:06:45;;;;;;;4.25;2.85;;;0.50;99.90;;;;;;5072314;28;20020;-79
2022/01/02 08:09:10;;;;;;;3.25;2.20;;;0.60;99.90;;;;;;5090011;28;20042;-75
2022/01/02 08:11:36;;;;;;;2.92;1.92;;;0.60;99.90;;;;;;5090166;28;20423;-75
2022/01/02 08:14:02;;;;;;;3.75;2.95;;;0.70;99.90;;;;;;5090537;28;20240;-82
2022/01/02 08:16:28;;;;;;;4.38;2.78;;;0.70;99.90;;;;;;5070467;28;20031;-79
2022/01/02 08:18:54;;;;;;;4.10;2.90;;;0.70;99.90;;;;;;5074078;28;20027;-77
2022/01/02 08:21:19;;;;;;;8.20;3.33;;;0.70;99.90;;;;;;5091585;28;20020;-76
2022/01/02 08:23:45;;;;;;;8.30;2.67;;;0.80;99.90;;;;;;5081346;28;20046;-76
2022/01/02 08:26:11;;;;;;;4.05;2.45;;;0.80;99.90;;;;;;5068404;28;20066;-77
2022/01/02 08:28:37;;;;;;;2.75;1.98;;;0.90;99.90;;;;;;5087912;28;20127;-75
2022/01/02 08:31:02;;;;;;;4.53;2.00;;;0.90;99.90;;;;;;5071674;28;20023;-77
2022/01/02 08:33:28;;;;;;;4.18;1.98;;;1.00;99.90;;;;;;5086972;28;20043;-75
2022/01/02 08:35:54;;;;;;;5.55;2.95;;;1.10;99.90;;;;;;5098705;28;20451;-76
2022/01/02 08:38:19;;;;;;;4.15;2.72;;;1.20;99.90;;;;;;5086425;28;20040;-76
2022/01/02 08:40:45;;;;;;;5.28;2.38;;;1.30;99.90;;;;;;5087228;28;20097;-76
2022/01/02 08:43:11;;;;;;;3.78;2.60;;;1.20;99.90;;;;;;5086535;28;20114;-76
2022/01/02 08:45:37;;;;;;;9.27;4.22;;;1.20;99.90;;;;;;5087058;28;20365;-76
2022/01/02 08:48:04;;;;;;;7.75;3.33;;;1.20;99.90;;;;;;5087448;28;20016;-76
2022/01/02 08:50:30;;;;;;;7.70;3.50;;;1.20;99.90;;;;;;5069181;28;20039;-77
2022/01/02 08:52:55;;;;;;;9.07;4.57;;;1.20;99.90;;;;;;5068092;28;20024;-76
2022/01/02 08:55:21;;;;;;;9.77;4.25;;;1.30;99.90;;;;;;5087752;28;20073;-77
2022/01/02 08:57:47;;;;;;;6.85;3.42;;;1.50;99.90;;;;;;5087560;28;20460;-85
2022/01/02 09:00:13;;;;;;;7.35;4.25;;;1.60;99.90;;;;;;5086769;28;20032;-74
2022/01/02 09:02:39;;;;;;;8.20;4.53;;;1.70;99.90;;;;;;5086783;28;20024;-75
2022/01/02 09:05:06;;;;;;;7.63;4.70;;;1.70;99.90;;;;;;5068377;28;20046;-75
2022/01/02 09:07:32;;;;;;;18.67;9.10;;;1.90;99.90;;;;;;5069057;28;20040;-74
2022/01/02 09:09:58;;;;;;;19.35;9.50;;;2.20;99.90;;;;;;5087725;28;20024;-83
2022/01/02 09:12:24;;;;;;;15.98;8.02;;;2.30;99.90;;;;;;5097215;28;20011;-78
2022/01/02 09:14:49;;;;;;;9.55;6.03;;;2.60;99.90;;;;;;5088552;28;20441;-75
2022/01/02 09:17:15;;;;;;;6.45;5.03;;;2.70;99.90;;;;;;5093924;28;20050;-75
2022/01/02 09:19:41;;;;;;;14.82;6.90;;;2.90;99.90;;;;;;5086842;28;20508;-75
2022/01/02 09:22:06;;;;;;;11.23;5.30;;;2.90;99.90;;;;;;5078885;28;20092;-76
2022/01/02 09:24:32;;;;;;;16.55;7.35;;;3.20;99.90;;;;;;5107537;28;20100;-78
2022/01/02 09:26:58;;;;;;;24.17;11.57;;;3.40;99.90;;;;;;5088743;28;20569;-76
2022/01/02 09:29:24;;;;;;;27.40;10.43;;;3.90;99.90;;;;;;5111555;28;20091;-77
2022/01/02 09:31:50;;;;;;;19.40;11.10;;;4.10;99.90;;;;;;5110864;28;20031;-77
2022/01/02 09:34:16;;;;;;;31.33;12.77;;;4.30;99.90;;;;;;5110953;28;20057;-77
2022/01/02 09:36:41;;;;;;;40.33;20.20;;;4.50;99.90;;;;;;5111892;28;20024;-80
2022/01/02 09:39:07;;;;;;;36.22;17.02;;;4.70;99.90;;;;;;5091672;28;20166;-80
2022/01/02 09:41:33;;;;;;;33.47;18.08;;;4.90;99.90;;;;;;5110363;28;20024;-77
2022/01/02 09:44:00;;;;;;;27.80;13.25;;;5.10;99.90;;;;;;5091991;28;20032;-77
2022/01/02 09:46:27;;;;;;;22.38;11.68;;;5.20;99.90;;;;;;5092060;28;20035;-76
2022/01/02 09:48:54;;;;;;;17.30;8.77;;;5.30;99.90;;;;;;5071784;28;20018;-76
2022/01/02 09:51:26;;;;;;;14.27;7.35;;;5.30;99.90;;;;;;5089383;28;20062;-76
2022/01/02 09:53:53;;;;;;;15.40;6.90;;;5.30;99.90;;;;;;5070789;28;20039;-79
2022/01/02 09:56:19;;;;;;;15.40;8.18;;;5.20;99.90;;;;;;5070550;28;20070;-76
2022/01/02 09:58:45;;;;;;;16.20;8.63;;;5.20;99.90;;;;;;5125003;27;20054;-77
2022/01/02 10:01:20;;;;;;;11.25;6.82;;;5.20;99.90;;;;;;5069340;28;20085;-75
2022/01/02 10:03:50;;;;;;;13.07;6.38;;;5.20;99.90;;;;;;5088857;28;20032;-74
2022/01/02 10:06:17;;;;;;;13.07;5.20;;;5.30;99.90;;;;;;5089773;28;20551;-76
2022/01/02 10:08:43;;;;;;;9.35;5.20;;;5.40;99.90;;;;;;5070845;28;20483;-78
2022/01/02 10:11:24;;;;;;;10.88;6.47;;;5.60;99.90;;;;;;5071658;28;20024;-77
2022/01/02 10:13:55;;;;;;;11.57;6.57;;;5.70;99.90;;;;;;5090965;28;20040;-76
2022/01/02 10:16:31;;;;;;;13.20;6.57;;;5.90;99.90;;;;;;5110041;28;20015;-76
2022/01/02 10:18:58;;;;;;;11.90;6.47;;;6.10;99.90;;;;;;5091328;28;20030;-76
2022/01/02 10:21:31;;;;;;;9.55;5.75;;;6.10;99.90;;;;;;5109671;28;20035;-76
2022/01/02 10:24:26;;;;;;;11.50;5.97;;;6.10;99.90;;;;;;5090924;28;20144;-76
2022/01/02 10:27:31;;;;;;;11.90;6.32;;;6.00;99.90;;;;;;5109612;28;20153;-77
2022/01/02 10:29:59;;;;;;;12.23;6.07;;;6.20;99.90;;;;;;4989900;28;20064;-76
2022/01/02 10:32:34;;;;;;;11.52;7.38;;;6.10;99.90;;;;;;4990448;28;20030;-77
2022/01/02 10:35:23;;;;;;;11.27;7.10;;;6.10;99.90;;;;;;5062097;28;20239;-79
2022/01/02 10:37:55;;;;;;;11.45;6.45;;;6.30;99.90;;;;;;5109629;28;20059;-78
2022/01/02 10:40:31;;;;;;;10.80;6.18;;;6.40;99.90;;;;;;5090716;28;20496;-76
2022/01/02 10:42:59;;;;;;;15.68;8.40;;;6.50;99.90;;;;;;5109301;28;20475;-78
2022/01/02 10:45:33;;;;;;;12.50;6.90;;;6.50;99.90;;;;;;5093950;28;20025;-83
2022/01/02 10:47:59;;;;;;;24.00;12.10;;;6.50;99.90;;;;;;5071395;28;20043;-85
2022/01/02 10:50:25;;;;;;;13.50;7.43;;;6.80;99.90;;;;;;5072964;28;20027;-85
2022/01/02 10:52:51;;;;;;;16.00;8.15;;;7.00;99.90;;;;;;5070809;28;20452;-76
2022/01/02 10:55:18;;;;;;;14.15;8.20;;;6.80;99.90;;;;;;5087778;28;20108;-75
2022/01/02 10:57:49;;;;;;;13.23;7.63;;;6.90;99.90;;;;;;5067481;28;20210;-77
2022/01/02 11:00:22;;;;;;;14.20;7.97;;;6.90;99.90;;;;;;5094322;28;20012;-76
2022/01/02 11:02:48;;;;;;;11.98;6.78;;;7.00;99.90;;;;;;5089127;28;20028;-76
2022/01/02 11:05:17;;;;;;;10.02;6.63;;;7.10;99.90;;;;;;5084943;28;20147;-77
2022/01/02 11:07:51;;;;;;;9.20;5.30;;;6.40;99.90;;;;;;5090121;28;20106;-75
2022/01/02 11:10:19;;;;;;;9.07;5.70;;;7.30;99.90;;;;;;5090375;28;20381;-77
2022/01/02 11:12:46;;;;;;;6.70;4.53;;;7.20;99.90;;;;;;5090107;28;20110;-76
2022/01/02 11:15:15;;;;;;;5.93;4.55;;;7.30;99.90;;;;;;5108396;28;20065;-76
2022/01/02 11:17:41;;;;;;;5.53;3.93;;;7.40;99.90;;;;;;5073280;28;20080;-75
2022/01/02 11:20:09;;;;;;;5.95;4.05;;;7.50;99.90;;;;;;5087968;28;20430;-77
2022/01/02 11:22:47;;;;;;;5.15;4.10;;;7.50;99.90;;;;;;5070589;28;20028;-75
2022/01/02 11:25:57;;;;;;;8.13;4.80;;;7.50;99.90;;;;;;5087807;28;20039;-76
2022/01/02 11:28:38;;;;;;;6.38;4.53;;;7.50;99.90;;;;;;5056311;28;20101;-75
2022/01/02 11:31:06;;;;;;;6.78;4.50;;;7.50;99.90;;;;;;5070030;28;20028;-77
2022/01/02 11:33:41;;;;;;;7.57;3.97;;;7.30;99.90;;;;;;5069553;28;20031;-77
2022/01/02 11:36:28;;;;;;;10.80;5.03;;;7.20;99.90;;;;;;5069583;28;20016;-76
2022/01/02 11:39:07;;;;;;;10.45;5.63;;;8.10;99.90;;;;;;5087301;28;20044;-75
2022/01/02 11:41:38;;;;;;;6.25;4.15;;;7.30;99.90;;;;;;5088201;28;20027;-75
2022/01/02 11:44:47;;;;;;;6.70;3.53;;;7.30;99.90;;;;;;5087705;28;20036;-86
2022/01/02 11:47:42;;;;;;;8.93;5.55;;;7.50;99.90;;;;;;5087786;28;20031;-76
2022/01/02 11:50:30;;;;;;;9.18;5.00;;;7.80;99.90;;;;;;5087084;28;20492;-74
2022/01/02 11:53:16;;;;;;;8.32;4.75;;;8.00;99.90;;;;;;5093893;28;20019;-76
2022/01/02 11:55:44;;;;;;;12.90;6.25;;;9.40;99.90;;;;;;5107698;28;20384;-78
2022/01/02 11:58:09;;;;;;;11.07;5.05;;;8.00;99.90;;;;;;5107691;28;20023;-75
2022/01/02 12:00:35;;;;;;;9.77;5.28;;;8.00;99.90;;;;;;5107950;28;20432;-74
2022/01/02 12:03:01;;;;;;;5.80;4.00;;;8.10;99.90;;;;;;5107392;28;20023;-75
2022/01/02 12:05:26;;;;;;;5.70;3.70;;;8.20;99.90;;;;;;5107350;28;20039;-76
2022/01/02 12:07:53;;;;;;;9.20;3.65;;;8.30;99.90;;;;;;5107773;28;20106;-75
2022/01/02 12:10:24;;;;;;;9.55;4.05;;;8.40;99.90;;;;;;5107766;28;20019;-75
2022/01/02 12:13:16;;;;;;;5.28;3.17;;;8.50;99.90;;;;;;5107550;28;20016;-74
2022/01/02 12:15:42;;;;;;;6.72;3.83;;;8.60;99.90;;;;;;5107473;28;20083;-76
2022/01/02 12:18:17;;;;;;;6.45;4.25;;;8.70;99.90;;;;;;5107903;28;20020;-75
2022/01/02 12:20:56;;;;;;;6.93;3.97;;;8.80;99.90;;;;;;5108410;28;20024;-72
2022/01/02 12:23:34;;;;;;;10.68;5.82;;;8.80;99.90;;;;;;5106843;28;20023;-76
2022/01/02 12:26:01;;;;;;;10.50;5.50;;;8.90;99.90;;;;;;5107486;28;20027;-74
2022/01/02 12:28:56;;;;;;;7.95;5.15;;;9.00;99.90;;;;;;5106918;28;20085;-76
2022/01/02 12:31:27;;;;;;;11.35;5.75;;;9.00;99.90;;;;;;5107905;28;20031;-73
2022/01/02 12:33:54;;;;;;;9.80;5.32;;;8.80;99.90;;;;;;5088897;28;20034;-72
2022/01/02 12:36:22;;;;;;;16.60;8.45;;;8.80;99.90;;;;;;5107442;28;20054;-74
2022/01/02 12:38:54;;;;;;;13.43;7.07;;;8.70;99.90;;;;;;5106168;28;20047;-74
2022/01/02 12:41:23;;;;;;;10.13;5.43;;;8.60;99.90;;;;;;5088898;28;20088;-74
2022/01/02 12:44:00;;;;;;;6.20;4.55;;;8.50;99.90;;;;;;5107049;28;20043;-75
2022/01/02 12:46:47;;;;;;;11.07;6.93;;;8.30;99.90;;;;;;5107542;28;20015;-75
2022/01/02 12:49:28;;;;;;;11.88;5.68;;;8.40;99.90;;;;;;5088153;28;20067;-74
2022/01/02 12:51:56;;;;;;;8.35;5.22;;;8.60;99.90;;;;;;5106959;28;20107;-76
2022/01/02 12:54:28;;;;;;;5.88;4.13;;;8.90;99.90;;;;;;5088271;28;20024;-73
2022/01/02 12:56:56;;;;;;;3.90;3.40;;;8.90;99.90;;;;;;5068705;28;20488;-74
2022/01/02 12:59:25;;;;;;;6.43;3.40;;;8.90;99.90;;;;;;5067964;28;20047;-74
2022/01/02 13:02:08;;;;;;;4.10;3.13;;;9.10;99.90;;;;;;5087098;28;20055;-73
2022/01/02 13:04:39;;;;;;;5.00;3.92;;;9.00;99.90;;;;;;5092689;28;20078;-74
2022/01/02 13:07:08;;;;;;;5.15;3.85;;;9.10;99.90;;;;;;5108538;28;20020;-74
2022/01/02 13:09:37;;;;;;;4.50;3.00;;;9.10;99.90;;;;;;5111337;28;20019;-75